sensor_id;sensor_type;location;lat;lon;timestamp;temperature;humidity
58469;DHT22;44257;44.804;10.220;2022-10-17T00:01:47;15.70;99.90
58469;DHT22;44257;44.804;10.220;2022-10-17T00:04:12;15.70;99.90
58469;DHT22;44257;44.804;10.220;2022-10-17T00:06:38;15.70;99.90
58469;DHT22;44257;44.804;10.220;2022-10-17T00:09:04;15.60;99.90
58469;DHT22;44257;44.804;10.220;2022-10-17T00:11:30;15.50;99.90
58469;DHT22;44257;44.804;10.220;2022-10-17T00:13:56;15.50;99.90
58469;DHT22;44257;44.804;10.220;2022-10-17T00:16:27;15.50;99.90
58469;DHT22;44257;44.804;10.220;2022-10-17T00:18:53;15.50;99.90
58469;DHT22;44257;44.804;10.220;2022-10-17T00:21:20;15.50;99.90
58469;DHT22;44257;44.804;10.220;2022-10-17T00:23:46;15.40;99.90
58469;DHT22;44257;44.804;10.220;2022-10-17T00:26:13;15.40;99.90
58469;DHT22;44257;44.804;10.220;2022-10-17T00:28:39;15.30;99.90
58469;DHT22;44257;44.804;10.220;2022-10-17T00:31:05;15.40;99.90
58469;DHT22;44257;44.804;10.220;2022-10-17T00:33:33;15.40;99.90
58469;DHT22;44257;44.804;10.220;2022-10-17T00:36:23;15.30;99.90
58469;DHT22;44257;44.804;10.220;2022-10-17T00:38:55;15.20;99.90
58469;DHT22;44257;44.804;10.220;2022-10-17T00:41:25;15.10;99.90
58469;DHT22;44257;44.804;10.220;2022-10-17T00:46:21;15.00;99.90
58469;DHT22;44257;44.804;10.220;2022-10-17T00:48:52;15.00;99.90
58469;DHT22;44257;44.804;10.220;2022-10-17T00:51:24;15.00;99.90
58469;DHT22;44257;44.804;10.220;2022-10-17T00:53:51;14.90;99.90
58469;DHT22;44257;44.804;10.220;2022-10-17T00:56:18;14.90;99.90
58469;DHT22;44257;44.804;10.220;2022-10-17T00:58:46;15.00;99.90
58469;DHT22;44257;44.804;10.220;2022-10-17T01:01:13;15.10;99.90
58469;DHT22;44257;44.804;10.220;2022-10-17T01:03:41;15.10;99.90
58469;DHT22;44257;44.804;10.220;2022-10-17T01:06:07;15.10;99.90
58469;DHT22;44257;44.804;10.220;2022-10-17T01:08:33;15.20;99.90
58469;DHT22;44257;44.804;10.220;2022-10-17T01:11:12;15.20;99.90
58469;DHT22;44257;44.804;10.220;2022-10-17T01:14:08;15.20;99.90
58469;DHT22;44257;44.804;10.220;2022-10-17T01:16:48;15.20;99.90
58469;DHT22;44257;44.804;10.220;2022-10-17T01:32:47;15.10;99.90
58469;DHT22;44257;44.804;10.220;2022-10-17T01:35:36;15.00;99.90
58469;DHT22;44257;44.804;10.220;2022-10-17T01:38:14;15.00;99.90
58469;DHT22;44257;44.804;10.220;2022-10-17T01:43:48;14.80;99.90
58469;DHT22;44257;44.804;10.220;2022-10-17T01:46:22;14.70;99.90
58469;DHT22;44257;44.804;10.220;2022-10-17T01:48:50;14.60;99.90
58469;DHT22;44257;44.804;10.220;2022-10-17T01:51:37;14.60;99.90
58469;DHT22;44257;44.804;10.220;2022-10-17T01:54:24;14.50;99.90
58469;DHT22;44257;44.804;10.220;2022-10-17T01:56:57;14.50;99.90
58469;DHT22;44257;44.804;10.220;2022-10-17T01:59:27;14.40;99.90
58469;DHT22;44257;44.804;10.220;2022-10-17T02:01:55;14.40;99.90
58469;DHT22;44257;44.804;10.220;2022-10-17T02:04:23;14.40;99.90
58469;DHT22;44257;44.804;10.220;2022-10-17T02:06:49;14.50;99.90
58469;DHT22;44257;44.804;10.220;2022-10-17T02:09:24;14.40;99.90
58469;DHT22;44257;44.804;10.220;2022-10-17T02:12:12;14.30;99.90
58469;DHT22;44257;44.804;10.220;2022-10-17T02:20:36;14.30;99.90
58469;DHT22;44257;44.804;10.220;2022-10-17T02:23:17;14.20;99.90
58469;DHT22;44257;44.804;10.220;2022-10-17T02:28:43;14.10;99.90
58469;DHT22;44257;44.804;10.220;2022-10-17T02:31:18;14.00;99.90
58469;DHT22;44257;44.804;10.220;2022-10-17T02:34:00;14.00;99.90
58469;DHT22;44257;44.804;10.220;2022-10-17T02:36:38;14.00;99.90
58469;DHT22;44257;44.804;10.220;2022-10-17T02:39:07;13.90;99.90
58469;DHT22;44257;44.804;10.220;2022-10-17T02:41:35;13.90;99.90
58469;DHT22;44257;44.804;10.220;2022-10-17T02:44:03;13.90;99.90
58469;DHT22;44257;44.804;10.220;2022-10-17T02:46:30;13.90;99.90
58469;DHT22;44257;44.804;10.220;2022-10-17T02:49:22;13.80;99.90
58469;DHT22;44257;44.804;10.220;2022-10-17T02:54:36;13.70;99.90
58469;DHT22;44257;44.804;10.220;2022-10-17T02:59:44;13.60;99.90
58469;DHT22;44257;44.804;10.220;2022-10-17T03:02:11;13.60;99.90
58469;DHT22;44257;44.804;10.220;2022-10-17T03:04:41;13.50;99.90
58469;DHT22;44257;44.804;10.220;2022-10-17T03:07:08;13.50;99.90
58469;DHT22;44257;44.804;10.220;2022-10-17T03:09:34;13.50;99.90
58469;DHT22;44257;44.804;10.220;2022-10-17T03:12:00;13.50;99.90
58469;DHT22;44257;44.804;10.220;2022-10-17T03:14:25;13.50;99.90
58469;DHT22;44257;44.804;10.220;2022-10-17T03:16:51;13.40;99.90
58469;DHT22;44257;44.804;10.220;2022-10-17T03:19:18;13.40;99.90
58469;DHT22;44257;44.804;10.220;2022-10-17T03:21:44;13.40;99.90
58469;DHT22;44257;44.804;10.220;2022-10-17T03:24:10;13.40;99.90
58469;DHT22;44257;44.804;10.220;2022-10-17T03:26:36;13.40;99.90
58469;DHT22;44257;44.804;10.220;2022-10-17T03:29:03;13.30;99.90
58469;DHT22;44257;44.804;10.220;2022-10-17T03:31:30;13.30;99.90
58469;DHT22;44257;44.804;10.220;2022-10-17T03:33:57;13.30;99.90
58469;DHT22;44257;44.804;10.220;2022-10-17T03:36:22;13.30;99.90
58469;DHT22;44257;44.804;10.220;2022-10-17T03:38:52;13.30;99.90
58469;DHT22;44257;44.804;10.220;2022-10-17T03:41:19;13.20;99.90
58469;DHT22;44257;44.804;10.220;2022-10-17T03:43:46;13.20;99.90
58469;DHT22;44257;44.804;10.220;2022-10-17T03:46:13;13.20;99.90
58469;DHT22;44257;44.804;10.220;2022-10-17T03:48:39;13.20;99.90
58469;DHT22;44257;44.804;10.220;2022-10-17T03:51:07;13.20;99.90
58469;DHT22;44257;44.804;10.220;2022-10-17T03:53:39;13.20;99.90
58469;DHT22;44257;44.804;10.220;2022-10-17T03:56:14;13.20;99.90
58469;DHT22;44257;44.804;10.220;2022-10-17T03:58:41;13.20;99.90
58469;DHT22;44257;44.804;10.220;2022-10-17T04:01:09;13.20;99.90
58469;DHT22;44257;44.804;10.220;2022-10-17T04:03:36;13.20;99.90
58469;DHT22;44257;44.804;10.220;2022-10-17T04:06:02;13.20;99.90
58469;DHT22;44257;44.804;10.220;2022-10-17T04:08:31;13.20;99.90
58469;DHT22;44257;44.804;10.220;2022-10-17T04:11:20;13.20;99.90
58469;DHT22;44257;44.804;10.220;2022-10-17T04:13:52;13.30;99.90
58469;DHT22;44257;44.804;10.220;2022-10-17T04:16:18;13.30;99.90
58469;DHT22;44257;44.804;10.220;2022-10-17T04:18:53;13.30;99.90
58469;DHT22;44257;44.804;10.220;2022-10-17T04:21:21;13.30;99.90
58469;DHT22;44257;44.804;10.220;2022-10-17T04:23:52;13.40;99.90
58469;DHT22;44257;44.804;10.220;2022-10-17T04:26:30;13.40;99.90
58469;DHT22;44257;44.804;10.220;2022-10-17T04:28:56;13.40;99.90
58469;DHT22;44257;44.804;10.220;2022-10-17T04:31:22;13.40;99.90
58469;DHT22;44257;44.804;10.220;2022-10-17T04:34:02;13.40;99.90
58469;DHT22;44257;44.804;10.220;2022-10-17T04:36:28;13.40;99.90
58469;DHT22;44257;44.804;10.220;2022-10-17T04:38:54;13.30;99.90
58469;DHT22;44257;44.804;10.220;2022-10-17T04:41:20;13.40;99.90
58469;DHT22;44257;44.804;10.220;2022-10-17T04:43:46;13.40;99.90
58469;DHT22;44257;44.804;10.220;2022-10-17T04:46:13;13.40;99.90
58469;DHT22;44257;44.804;10.220;2022-10-17T04:48:40;13.50;99.90
58469;DHT22;44257;44.804;10.220;2022-10-17T04:51:13;13.50;99.90
58469;DHT22;44257;44.804;10.220;2022-10-17T04:54:02;13.60;99.90
58469;DHT22;44257;44.804;10.220;2022-10-17T04:56:28;13.70;99.90
58469;DHT22;44257;44.804;10.220;2022-10-17T04:58:54;13.60;99.90
58469;DHT22;44257;44.804;10.220;2022-10-17T05:01:22;13.60;99.90
58469;DHT22;44257;44.804;10.220;2022-10-17T05:03:52;13.60;99.90
58469;DHT22;44257;44.804;10.220;2022-10-17T05:06:20;13.50;99.90
58469;DHT22;44257;44.804;10.220;2022-10-17T05:08:58;13.50;99.90
58469;DHT22;44257;44.804;10.220;2022-10-17T05:11:27;13.50;99.90
58469;DHT22;44257;44.804;10.220;2022-10-17T05:13:56;13.50;99.90
58469;DHT22;44257;44.804;10.220;2022-10-17T05:16:23;13.50;99.90
58469;DHT22;44257;44.804;10.220;2022-10-17T05:18:51;13.50;99.90
58469;DHT22;44257;44.804;10.220;2022-10-17T05:21:17;13.50;99.90
58469;DHT22;44257;44.804;10.220;2022-10-17T05:23:44;13.50;99.90
58469;DHT22;44257;44.804;10.220;2022-10-17T05:26:10;13.50;99.90
58469;DHT22;44257;44.804;10.220;2022-10-17T05:28:36;13.50;99.90
58469;DHT22;44257;44.804;10.220;2022-10-17T05:31:04;13.40;99.90
58469;DHT22;44257;44.804;10.220;2022-10-17T05:33:31;13.40;99.90
58469;DHT22;44257;44.804;10.220;2022-10-17T05:35:57;13.40;99.90
58469;DHT22;44257;44.804;10.220;2022-10-17T05:38:24;13.40;99.90
58469;DHT22;44257;44.804;10.220;2022-10-17T05:40:50;13.50;99.90
58469;DHT22;44257;44.804;10.220;2022-10-17T05:43:17;13.50;99.90
58469;DHT22;44257;44.804;10.220;2022-10-17T05:45:44;13.40;99.90
58469;DHT22;44257;44.804;10.220;2022-10-17T05:48:16;13.40;99.90
58469;DHT22;44257;44.804;10.220;2022-10-17T05:50:41;13.50;99.90
58469;DHT22;44257;44.804;10.220;2022-10-17T05:53:12;13.40;99.90
58469;DHT22;44257;44.804;10.220;2022-10-17T05:55:43;13.40;99.90
58469;DHT22;44257;44.804;10.220;2022-10-17T05:58:09;13.30;99.90
58469;DHT22;44257;44.804;10.220;2022-10-17T06:00:40;13.30;99.90
58469;DHT22;44257;44.804;10.220;2022-10-17T06:03:09;13.30;99.90
58469;DHT22;44257;44.804;10.220;2022-10-17T06:05:36;13.40;99.90
58469;DHT22;44257;44.804;10.220;2022-10-17T06:08:02;13.40;99.90
58469;DHT22;44257;44.804;10.220;2022-10-17T06:10:32;13.40;99.90
58469;DHT22;44257;44.804;10.220;2022-10-17T06:12:59;13.30;99.90
58469;DHT22;44257;44.804;10.220;2022-10-17T06:15:25;13.30;99.90
58469;DHT22;44257;44.804;10.220;2022-10-17T06:17:57;13.40;99.90
58469;DHT22;44257;44.804;10.220;2022-10-17T06:20:24;13.40;99.90
58469;DHT22;44257;44.804;10.220;2022-10-17T06:22:50;13.50;99.90
58469;DHT22;44257;44.804;10.220;2022-10-17T06:25:25;13.50;99.90
58469;DHT22;44257;44.804;10.220;2022-10-17T06:27:51;13.60;99.90
58469;DHT22;44257;44.804;10.220;2022-10-17T06:30:17;13.70;99.90
58469;DHT22;44257;44.804;10.220;2022-10-17T06:32:44;13.80;99.90
58469;DHT22;44257;44.804;10.220;2022-10-17T06:35:09;13.90;99.90
58469;DHT22;44257;44.804;10.220;2022-10-17T06:37:36;14.10;99.90
58469;DHT22;44257;44.804;10.220;2022-10-17T06:40:04;14.30;99.90
58469;DHT22;44257;44.804;10.220;2022-10-17T06:42:30;14.40;99.90
58469;DHT22;44257;44.804;10.220;2022-10-17T06:45:07;14.60;99.90
58469;DHT22;44257;44.804;10.220;2022-10-17T06:47:43;14.80;99.90
58469;DHT22;44257;44.804;10.220;2022-10-17T06:50:27;14.90;99.90
58469;DHT22;44257;44.804;10.220;2022-10-17T06:53:05;15.10;99.90
58469;DHT22;44257;44.804;10.220;2022-10-17T06:55:43;15.20;99.90
58469;DHT22;44257;44.804;10.220;2022-10-17T06:58:19;15.30;99.90
58469;DHT22;44257;44.804;10.220;2022-10-17T07:01:06;15.40;99.90
58469;DHT22;44257;44.804;10.220;2022-10-17T07:03:33;15.50;99.90
58469;DHT22;44257;44.804;10.220;2022-10-17T07:05:59;15.50;99.90
58469;DHT22;44257;44.804;10.220;2022-10-17T07:08:26;15.60;99.90
58469;DHT22;44257;44.804;10.220;2022-10-17T07:10:52;15.60;99.90
58469;DHT22;44257;44.804;10.220;2022-10-17T07:13:19;15.70;99.90
58469;DHT22;44257;44.804;10.220;2022-10-17T07:15:45;15.70;99.90
58469;DHT22;44257;44.804;10.220;2022-10-17T07:18:12;15.80;99.90
58469;DHT22;44257;44.804;10.220;2022-10-17T07:20:38;15.90;99.90
58469;DHT22;44257;44.804;10.220;2022-10-17T07:23:05;16.00;99.90
58469;DHT22;44257;44.804;10.220;2022-10-17T07:25:31;16.10;99.90
58469;DHT22;44257;44.804;10.220;2022-10-17T07:28:03;16.20;99.90
58469;DHT22;44257;44.804;10.220;2022-10-17T07:30:31;16.30;99.90
58469;DHT22;44257;44.804;10.220;2022-10-17T07:33:05;16.40;99.90
58469;DHT22;44257;44.804;10.220;2022-10-17T07:35:31;16.50;99.90
58469;DHT22;44257;44.804;10.220;2022-10-17T07:37:57;16.60;99.90
58469;DHT22;44257;44.804;10.220;2022-10-17T07:40:23;16.70;99.90
58469;DHT22;44257;44.804;10.220;2022-10-17T07:42:49;16.70;99.90
58469;DHT22;44257;44.804;10.220;2022-10-17T07:45:15;16.80;99.90
58469;DHT22;44257;44.804;10.220;2022-10-17T07:47:42;16.90;99.90
58469;DHT22;44257;44.804;10.220;2022-10-17T07:50:09;16.90;99.90
58469;DHT22;44257;44.804;10.220;2022-10-17T07:52:35;17.10;99.90
58469;DHT22;44257;44.804;10.220;2022-10-17T07:55:01;17.20;99.90
58469;DHT22;44257;44.804;10.220;2022-10-17T07:57:27;17.30;99.90
58469;DHT22;44257;44.804;10.220;2022-10-17T07:59:53;17.40;99.90
58469;DHT22;44257;44.804;10.220;2022-10-17T08:02:24;17.60;99.90
58469;DHT22;44257;44.804;10.220;2022-10-17T08:04:51;17.70;99.90
58469;DHT22;44257;44.804;10.220;2022-10-17T08:07:17;17.80;99.90
58469;DHT22;44257;44.804;10.220;2022-10-17T08:09:45;17.80;99.90
58469;DHT22;44257;44.804;10.220;2022-10-17T08:12:12;17.90;99.90
58469;DHT22;44257;44.804;10.220;2022-10-17T08:15:05;18.00;99.90
58469;DHT22;44257;44.804;10.220;2022-10-17T08:17:34;18.10;99.90
58469;DHT22;44257;44.804;10.220;2022-10-17T08:20:00;18.10;99.90
58469;DHT22;44257;44.804;10.220;2022-10-17T08:22:26;18.10;99.90
58469;DHT22;44257;44.804;10.220;2022-10-17T08:24:52;18.20;99.90
58469;DHT22;44257;44.804;10.220;2022-10-17T08:27:18;18.20;99.90
58469;DHT22;44257;44.804;10.220;2022-10-17T08:29:49;18.30;99.90
58469;DHT22;44257;44.804;10.220;2022-10-17T08:32:23;18.40;99.90
58469;DHT22;44257;44.804;10.220;2022-10-17T08:34:51;18.40;99.90
58469;DHT22;44257;44.804;10.220;2022-10-17T08:37:17;18.50;99.90
58469;DHT22;44257;44.804;10.220;2022-10-17T08:39:44;18.70;99.90
58469;DHT22;44257;44.804;10.220;2022-10-17T08:45:38;19.00;99.90
58469;DHT22;44257;44.804;10.220;2022-10-17T08:48:12;19.20;99.90
58469;DHT22;44257;44.804;10.220;2022-10-17T08:55:54;19.40;99.90
58469;DHT22;44257;44.804;10.220;2022-10-17T08:58:26;19.30;99.90
58469;DHT22;44257;44.804;10.220;2022-10-17T09:01:07;19.40;99.90
58469;DHT22;44257;44.804;10.220;2022-10-17T09:06:24;19.50;99.90
58469;DHT22;44257;44.804;10.220;2022-10-17T09:12:14;19.30;99.90
58469;DHT22;44257;44.804;10.220;2022-10-17T09:14:46;19.40;99.90
58469;DHT22;44257;44.804;10.220;2022-10-17T09:18:17;19.50;99.90
58469;DHT22;44257;44.804;10.220;2022-10-17T09:20:26;19.50;99.90
58469;DHT22;44257;44.804;10.220;2022-10-17T09:23:00;19.70;99.90
58469;DHT22;44257;44.804;10.220;2022-10-17T09:25:28;19.90;99.90
58469;DHT22;44257;44.804;10.220;2022-10-17T09:33:25;19.90;99.90
58469;DHT22;44257;44.804;10.220;2022-10-17T09:35:53;19.90;99.90
58469;DHT22;44257;44.804;10.220;2022-10-17T09:38:22;19.90;99.90
58469;DHT22;44257;44.804;10.220;2022-10-17T09:41:00;20.00;99.90
58469;DHT22;44257;44.804;10.220;2022-10-17T09:43:27;20.00;99.90
58469;DHT22;44257;44.804;10.220;2022-10-17T09:46:03;20.00;99.90
58469;DHT22;44257;44.804;10.220;2022-10-17T09:48:41;20.00;99.90
58469;DHT22;44257;44.804;10.220;2022-10-17T09:51:08;20.10;99.90
58469;DHT22;44257;44.804;10.220;2022-10-17T09:53:47;20.20;99.90
58469;DHT22;44257;44.804;10.220;2022-10-17T09:56:16;20.30;99.90
58469;DHT22;44257;44.804;10.220;2022-10-17T10:01:24;20.70;99.90
58469;DHT22;44257;44.804;10.220;2022-10-17T10:04:14;20.80;99.90
58469;DHT22;44257;44.804;10.220;2022-10-17T10:07:00;20.90;99.90
58469;DHT22;44257;44.804;10.220;2022-10-17T10:09:29;20.90;99.90
58469;DHT22;44257;44.804;10.220;2022-10-17T10:11:57;20.90;99.90
58469;DHT22;44257;44.804;10.220;2022-10-17T10:14:34;20.80;99.90
58469;DHT22;44257;44.804;10.220;2022-10-17T10:17:05;20.80;99.90
58469;DHT22;44257;44.804;10.220;2022-10-17T10:19:34;20.80;99.90
58469;DHT22;44257;44.804;10.220;2022-10-17T10:22:21;20.80;99.90
58469;DHT22;44257;44.804;10.220;2022-10-17T10:25:13;20.90;99.90
58469;DHT22;44257;44.804;10.220;2022-10-17T10:27:42;21.00;99.90
58469;DHT22;44257;44.804;10.220;2022-10-17T10:30:23;21.10;99.90
58469;DHT22;44257;44.804;10.220;2022-10-17T10:32:49;21.00;99.90
58469;DHT22;44257;44.804;10.220;2022-10-17T10:35:21;21.00;99.90
58469;DHT22;44257;44.804;10.220;2022-10-17T10:37:51;21.00;99.90
58469;DHT22;44257;44.804;10.220;2022-10-17T10:42:51;21.10;99.90
58469;DHT22;44257;44.804;10.220;2022-10-17T10:45:21;21.10;99.90
58469;DHT22;44257;44.804;10.220;2022-10-17T10:47:57;21.00;99.90
58469;DHT22;44257;44.804;10.220;2022-10-17T10:50:49;21.10;99.90
58469;DHT22;44257;44.804;10.220;2022-10-17T10:53:38;21.00;99.90
58469;DHT22;44257;44.804;10.220;2022-10-17T11:10:24;21.60;99.90
58469;DHT22;44257;44.804;10.220;2022-10-17T11:15:33;21.60;99.90
58469;DHT22;44257;44.804;10.220;2022-10-17T11:18:07;21.60;99.90
58469;DHT22;44257;44.804;10.220;2022-10-17T11:20:44;21.60;99.90
58469;DHT22;44257;44.804;10.220;2022-10-17T11:23:15;21.50;99.90
58469;DHT22;44257;44.804;10.220;2022-10-17T11:25:45;21.50;99.90
58469;DHT22;44257;44.804;10.220;2022-10-17T11:28:15;21.40;99.90
58469;DHT22;44257;44.804;10.220;2022-10-17T11:33:35;21.40;99.90
58469;DHT22;44257;44.804;10.220;2022-10-17T11:36:05;21.40;99.90
58469;DHT22;44257;44.804;10.220;2022-10-17T11:39:10;21.40;99.90
58469;DHT22;44257;44.804;10.220;2022-10-17T11:41:43;21.50;99.90
58469;DHT22;44257;44.804;10.220;2022-10-17T11:44:30;21.60;99.90
58469;DHT22;44257;44.804;10.220;2022-10-17T11:47:02;21.70;99.90
58469;DHT22;44257;44.804;10.220;2022-10-17T11:49:36;21.80;99.90
58469;DHT22;44257;44.804;10.220;2022-10-17T11:52:16;21.80;99.90
58469;DHT22;44257;44.804;10.220;2022-10-17T11:54:55;22.00;99.90
58469;DHT22;44257;44.804;10.220;2022-10-17T12:09:50;22.30;99.90
58469;DHT22;44257;44.804;10.220;2022-10-17T12:11:57;22.30;99.90
58469;DHT22;44257;44.804;10.220;2022-10-17T12:19:49;22.80;99.90
58469;DHT22;44257;44.804;10.220;2022-10-17T12:22:25;22.90;99.90
58469;DHT22;44257;44.804;10.220;2022-10-17T12:24:59;22.80;99.90
58469;DHT22;44257;44.804;10.220;2022-10-17T12:27:38;22.80;99.90
58469;DHT22;44257;44.804;10.220;2022-10-17T12:30:24;22.80;99.90
58469;DHT22;44257;44.804;10.220;2022-10-17T12:35:21;22.80;99.90
58469;DHT22;44257;44.804;10.220;2022-10-17T12:51:07;23.10;99.90
58469;DHT22;44257;44.804;10.220;2022-10-17T12:54:28;23.20;99.90
58469;DHT22;44257;44.804;10.220;2022-10-17T12:56:37;23.20;99.90
58469;DHT22;44257;44.804;10.220;2022-10-17T12:59:25;23.20;99.90
58469;DHT22;44257;44.804;10.220;2022-10-17T13:01:57;23.20;99.90
58469;DHT22;44257;44.804;10.220;2022-10-17T13:04:24;23.20;99.90
58469;DHT22;44257;44.804;10.220;2022-10-17T13:06:53;23.30;99.90
58469;DHT22;44257;44.804;10.220;2022-10-17T13:11:51;23.40;99.90
58469;DHT22;44257;44.804;10.220;2022-10-17T13:14:20;23.50;99.90
58469;DHT22;44257;44.804;10.220;2022-10-17T13:16:57;23.60;99.90
58469;DHT22;44257;44.804;10.220;2022-10-17T13:19:25;23.60;99.90
58469;DHT22;44257;44.804;10.220;2022-10-17T13:21:59;23.60;99.90
58469;DHT22;44257;44.804;10.220;2022-10-17T13:26:59;23.70;99.90
58469;DHT22;44257;44.804;10.220;2022-10-17T13:29:25;23.70;99.90
58469;DHT22;44257;44.804;10.220;2022-10-17T13:31:58;23.70;99.90
58469;DHT22;44257;44.804;10.220;2022-10-17T13:34:26;23.90;99.90
58469;DHT22;44257;44.804;10.220;2022-10-17T13:36:58;24.10;99.90
58469;DHT22;44257;44.804;10.220;2022-10-17T13:39:27;24.30;99.90
58469;DHT22;44257;44.804;10.220;2022-10-17T13:41:55;24.50;99.90
58469;DHT22;44257;44.804;10.220;2022-10-17T13:44:24;24.60;99.90
58469;DHT22;44257;44.804;10.220;2022-10-17T13:46:51;24.50;99.90
58469;DHT22;44257;44.804;10.220;2022-10-17T13:49:40;24.60;99.90
58469;DHT22;44257;44.804;10.220;2022-10-17T13:52:18;24.60;99.90
58469;DHT22;44257;44.804;10.220;2022-10-17T13:54:49;24.50;99.90
58469;DHT22;44257;44.804;10.220;2022-10-17T13:57:27;24.40;99.90
58469;DHT22;44257;44.804;10.220;2022-10-17T14:00:00;24.40;99.90
58469;DHT22;44257;44.804;10.220;2022-10-17T14:02:31;24.40;99.90
58469;DHT22;44257;44.804;10.220;2022-10-17T14:07:55;24.30;99.90
58469;DHT22;44257;44.804;10.220;2022-10-17T14:12:51;24.40;99.90
58469;DHT22;44257;44.804;10.220;2022-10-17T14:15:27;24.40;99.90
58469;DHT22;44257;44.804;10.220;2022-10-17T14:17:56;24.40;99.90
58469;DHT22;44257;44.804;10.220;2022-10-17T14:20:22;24.50;99.90
58469;DHT22;44257;44.804;10.220;2022-10-17T14:22:49;24.50;99.90
58469;DHT22;44257;44.804;10.220;2022-10-17T14:25:34;24.40;99.90
58469;DHT22;44257;44.804;10.220;2022-10-17T14:28:02;24.40;99.90
58469;DHT22;44257;44.804;10.220;2022-10-17T14:30:35;24.40;99.90
58469;DHT22;44257;44.804;10.220;2022-10-17T14:33:04;24.30;99.90
58469;DHT22;44257;44.804;10.220;2022-10-17T14:35:30;24.30;99.90
58469;DHT22;44257;44.804;10.220;2022-10-17T14:38:01;24.30;99.90
58469;DHT22;44257;44.804;10.220;2022-10-17T14:40:29;24.30;99.90
58469;DHT22;44257;44.804;10.220;2022-10-17T14:42:59;24.40;99.90
58469;DHT22;44257;44.804;10.220;2022-10-17T14:45:33;24.30;99.90
58469;DHT22;44257;44.804;10.220;2022-10-17T14:50:31;24.10;99.90
58469;DHT22;44257;44.804;10.220;2022-10-17T14:55:33;24.10;99.90
58469;DHT22;44257;44.804;10.220;2022-10-17T14:58:00;24.10;99.90
58469;DHT22;44257;44.804;10.220;2022-10-17T15:00:27;24.10;99.90
58469;DHT22;44257;44.804;10.220;2022-10-17T15:02:54;24.00;99.90
58469;DHT22;44257;44.804;10.220;2022-10-17T15:05:20;23.90;99.90
58469;DHT22;44257;44.804;10.220;2022-10-17T15:07:47;23.80;99.90
58469;DHT22;44257;44.804;10.220;2022-10-17T15:10:34;23.80;99.90
58469;DHT22;44257;44.804;10.220;2022-10-17T15:13:01;23.70;99.90
58469;DHT22;44257;44.804;10.220;2022-10-17T15:15:30;23.70;99.90
58469;DHT22;44257;44.804;10.220;2022-10-17T15:17:56;23.50;99.90
58469;DHT22;44257;44.804;10.220;2022-10-17T15:20:24;23.50;99.90
58469;DHT22;44257;44.804;10.220;2022-10-17T15:22:58;23.50;99.90
58469;DHT22;44257;44.804;10.220;2022-10-17T15:25:25;23.40;99.90
58469;DHT22;44257;44.804;10.220;2022-10-17T15:27:52;23.30;99.90
58469;DHT22;44257;44.804;10.220;2022-10-17T15:30:24;23.20;99.90
58469;DHT22;44257;44.804;10.220;2022-10-17T15:32:51;23.10;99.90
58469;DHT22;44257;44.804;10.220;2022-10-17T15:35:17;23.10;99.90
58469;DHT22;44257;44.804;10.220;2022-10-17T15:37:45;23.00;99.90
58469;DHT22;44257;44.804;10.220;2022-10-17T15:40:17;22.90;99.90
58469;DHT22;44257;44.804;10.220;2022-10-17T15:42:43;22.80;99.90
58469;DHT22;44257;44.804;10.220;2022-10-17T15:45:13;22.70;99.90
58469;DHT22;44257;44.804;10.220;2022-10-17T15:47:45;22.60;99.90
58469;DHT22;44257;44.804;10.220;2022-10-17T15:50:14;22.50;99.90
58469;DHT22;44257;44.804;10.220;2022-10-17T15:52:40;22.40;99.90
58469;DHT22;44257;44.804;10.220;2022-10-17T15:55:08;22.20;99.90
58469;DHT22;44257;44.804;10.220;2022-10-17T15:57:37;22.00;99.90
58469;DHT22;44257;44.804;10.220;2022-10-17T16:00:05;21.90;99.90
58469;DHT22;44257;44.804;10.220;2022-10-17T16:02:35;21.70;99.90
58469;DHT22;44257;44.804;10.220;2022-10-17T16:05:00;21.50;99.90
58469;DHT22;44257;44.804;10.220;2022-10-17T16:07:26;21.40;99.90
58469;DHT22;44257;44.804;10.220;2022-10-17T16:09:52;21.30;99.90
58469;DHT22;44257;44.804;10.220;2022-10-17T16:12:23;21.10;99.90
58469;DHT22;44257;44.804;10.220;2022-10-17T16:14:51;21.00;99.90
58469;DHT22;44257;44.804;10.220;2022-10-17T16:17:17;20.80;99.90
58469;DHT22;44257;44.804;10.220;2022-10-17T16:19:43;20.70;99.90
58469;DHT22;44257;44.804;10.220;2022-10-17T16:22:30;20.60;99.90
58469;DHT22;44257;44.804;10.220;2022-10-17T16:24:57;20.40;99.90
58469;DHT22;44257;44.804;10.220;2022-10-17T16:27:32;20.30;99.90
58469;DHT22;44257;44.804;10.220;2022-10-17T16:29:57;20.20;99.90
58469;DHT22;44257;44.804;10.220;2022-10-17T16:32:23;20.10;99.90
58469;DHT22;44257;44.804;10.220;2022-10-17T16:34:49;20.00;99.90
58469;DHT22;44257;44.804;10.220;2022-10-17T16:37:15;19.90;99.90
58469;DHT22;44257;44.804;10.220;2022-10-17T16:39:41;19.80;99.90
58469;DHT22;44257;44.804;10.220;2022-10-17T16:42:07;19.70;99.90
58469;DHT22;44257;44.804;10.220;2022-10-17T16:44:33;19.60;99.90
58469;DHT22;44257;44.804;10.220;2022-10-17T16:46:59;19.50;99.90
58469;DHT22;44257;44.804;10.220;2022-10-17T16:49:25;19.50;99.90
58469;DHT22;44257;44.804;10.220;2022-10-17T16:51:51;19.40;99.90
58469;DHT22;44257;44.804;10.220;2022-10-17T16:54:16;19.30;99.90
58469;DHT22;44257;44.804;10.220;2022-10-17T16:56:42;19.20;99.90
58469;DHT22;44257;44.804;10.220;2022-10-17T16:59:09;19.10;99.90
58469;DHT22;44257;44.804;10.220;2022-10-17T17:01:35;19.00;99.90
58469;DHT22;44257;44.804;10.220;2022-10-17T17:04:03;19.00;99.90
58469;DHT22;44257;44.804;10.220;2022-10-17T17:06:32;18.90;99.90
58469;DHT22;44257;44.804;10.220;2022-10-17T17:08:58;18.80;99.90
58469;DHT22;44257;44.804;10.220;2022-10-17T17:11:25;18.80;99.90
58469;DHT22;44257;44.804;10.220;2022-10-17T17:13:54;18.70;99.90
58469;DHT22;44257;44.804;10.220;2022-10-17T17:16:22;18.60;99.90
58469;DHT22;44257;44.804;10.220;2022-10-17T17:18:53;18.60;99.90
58469;DHT22;44257;44.804;10.220;2022-10-17T17:21:19;18.60;99.90
58469;DHT22;44257;44.804;10.220;2022-10-17T17:23:45;18.50;99.90
58469;DHT22;44257;44.804;10.220;2022-10-17T17:26:16;18.50;99.90
58469;DHT22;44257;44.804;10.220;2022-10-17T17:28:43;18.50;99.90
58469;DHT22;44257;44.804;10.220;2022-10-17T17:31:13;18.40;99.90
58469;DHT22;44257;44.804;10.220;2022-10-17T17:33:40;18.40;99.90
58469;DHT22;44257;44.804;10.220;2022-10-17T17:36:07;18.40;99.90
58469;DHT22;44257;44.804;10.220;2022-10-17T17:38:35;18.30;99.90
58469;DHT22;44257;44.804;10.220;2022-10-17T17:41:03;18.30;99.90
58469;DHT22;44257;44.804;10.220;2022-10-17T17:43:34;18.20;99.90